Weather at Bilbao Airport

Public forecast

Using degrees Celsius for public forecast. Weather courtesy of forecast.io.

Current aviation weather report (METAR) for Bilbao Airport

Report is more than 6 hours old.

Retrieved 2022/09/17 19:00 UTC (17 days ago):

LEBB 171900Z 00000KT CAVOK 18/11 Q1018 NOSIG

Aviation forecast (TAF) for Bilbao Airport

Forecast is more than 12 hours old.

Retrieved 2022/09/17 18:29 UTC (17 days ago):

TAF LEBB 171700Z 1718/1818 VRB05KT CAVOK TX25/1813Z TN10/1804Z PROB30 TEMPO 1718/1720 05008KT TEMPO 1812/1818 05008KT